Time;durP1;ratioP1;P1;durP2;ratioP2;P2;SDS_P1;SDS_P2;PMS_P1;PMS_P2;Temp;Humidity;BMP_temperature;BMP_pressure;BME280_temperature;BME280_humidity;BME280_pressure;Samples;Min_cycle;Max_cycle;Signal;HPM_P1;HPM_P2
2023/06/07 00:00:27;;;;;;;18.15;5.20;;;11.00;99.90;;;;;;5054984;28;20076;-73
2023/06/07 00:02:53;;;;;;;15.60;4.95;;;11.00;99.90;;;;;;5050020;28;20076;-73
2023/06/07 00:05:21;;;;;;;15.65;5.13;;;11.00;99.90;;;;;;5049892;28;20141;-73
2023/06/07 00:07:47;;;;;;;13.55;4.82;;;11.00;99.90;;;;;;5057958;28;20107;-73
2023/06/07 00:10:13;;;;;;;19.92;5.28;;;11.00;99.90;;;;;;5055332;28;20114;-73
2023/06/07 00:12:40;;;;;;;13.02;5.00;;;11.00;99.90;;;;;;5068570;28;20199;-73
2023/06/07 00:15:07;;;;;;;15.35;5.30;;;11.00;99.90;;;;;;5069658;28;20425;-73
2023/06/07 00:17:33;;;;;;;15.10;4.97;;;11.00;99.90;;;;;;5069647;28;20040;-73
2023/06/07 00:20:00;;;;;;;19.98;6.00;;;11.00;99.90;;;;;;5068804;28;20051;-73
2023/06/07 00:22:26;;;;;;;18.13;5.35;;;11.00;99.90;;;;;;5043126;28;20435;-73
2023/06/07 00:24:52;;;;;;;19.70;5.53;;;10.90;99.90;;;;;;5061476;28;20040;-73
2023/06/07 00:27:18;;;;;;;18.33;5.38;;;10.90;99.90;;;;;;5050909;28;20052;-73
2023/06/07 00:29:44;;;;;;;15.77;5.32;;;10.90;99.90;;;;;;5066476;28;20410;-73
2023/06/07 00:32:11;;;;;;;19.20;5.88;;;10.90;99.90;;;;;;5068646;28;20044;-73
2023/06/07 00:34:37;;;;;;;20.10;5.40;;;10.90;99.90;;;;;;5059559;28;20479;-73
2023/06/07 00:37:03;;;;;;;14.27;5.50;;;10.90;99.90;;;;;;5050594;28;20089;-73
2023/06/07 00:39:28;;;;;;;15.50;4.40;;;11.00;99.90;;;;;;5061775;28;20055;-73
2023/06/07 00:41:54;;;;;;;13.55;5.15;;;10.90;99.90;;;;;;5044408;28;20052;-73
2023/06/07 00:44:20;;;;;;;16.85;5.22;;;10.90;99.90;;;;;;5057071;28;20439;-73
2023/06/07 00:46:46;;;;;;;17.85;5.30;;;11.00;99.90;;;;;;5049965;28;20037;-73
2023/06/07 00:49:16;;;;;;;15.18;5.10;;;10.90;99.90;;;;;;5048860;28;20155;-73
2023/06/07 00:51:42;;;;;;;16.10;5.10;;;10.90;99.90;;;;;;5032885;28;20048;-73
2023/06/07 00:54:08;;;;;;;15.15;5.30;;;10.90;99.90;;;;;;5053125;28;20057;-73
2023/06/07 00:56:37;;;;;;;14.32;4.93;;;10.90;99.90;;;;;;5046102;28;20052;-73
2023/06/07 00:59:03;;;;;;;17.85;4.95;;;10.80;99.90;;;;;;5059123;28;20448;-73
2023/06/07 01:01:29;;;;;;;13.45;4.40;;;10.80;99.90;;;;;;5049114;28;20422;-73
2023/06/07 01:03:56;;;;;;;13.82;4.65;;;10.80;99.90;;;;;;5051426;28;20057;-73
2023/06/07 01:06:22;;;;;;;14.90;4.68;;;10.80;99.90;;;;;;5048632;28;20045;-73
2023/06/07 01:08:50;;;;;;;16.42;4.88;;;10.80;99.90;;;;;;5057604;28;20048;-73
2023/06/07 01:11:19;;;;;;;14.65;4.78;;;10.80;99.90;;;;;;5049879;28;20530;-73
2023/06/07 01:13:45;;;;;;;15.90;4.10;;;10.70;99.90;;;;;;5058285;28;20493;-73
2023/06/07 01:16:11;;;;;;;14.25;4.60;;;10.70;99.90;;;;;;5040186;28;20044;-73
2023/06/07 01:18:37;;;;;;;18.65;4.57;;;10.70;99.90;;;;;;5063483;28;20049;-73
2023/06/07 01:21:04;;;;;;;16.30;4.43;;;10.70;99.90;;;;;;5069043;28;20059;-73
2023/06/07 01:23:31;;;;;;;16.17;4.70;;;10.70;99.90;;;;;;5037366;28;20040;-73
2023/06/07 01:25:59;;;;;;;14.45;4.70;;;10.70;99.90;;;;;;5023174;28;20048;-73
2023/06/07 01:28:26;;;;;;;15.45;4.43;;;10.70;99.90;;;;;;5058622;28;20065;-73
2023/06/07 01:30:54;;;;;;;14.27;4.55;;;10.70;99.90;;;;;;5054980;28;20113;-73
2023/06/07 01:33:21;;;;;;;17.52;4.55;;;10.70;99.90;;;;;;5057867;28;20053;-73
2023/06/07 01:35:50;;;;;;;14.65;4.40;;;10.70;99.90;;;;;;5058738;28;20037;-73
2023/06/07 01:38:19;;;;;;;15.82;4.35;;;10.70;99.90;;;;;;5063877;28;20063;-73
2023/06/07 01:40:45;;;;;;;14.98;4.70;;;10.70;99.90;;;;;;5063114;28;20048;-73
2023/06/07 01:43:11;;;;;;;16.40;4.82;;;10.70;99.90;;;;;;5060502;28;20454;-73
2023/06/07 01:45:37;;;;;;;13.02;4.30;;;10.70;99.90;;;;;;5063368;28;20037;-73
2023/06/07 01:48:04;;;;;;;16.13;4.60;;;10.70;99.90;;;;;;5043229;28;20391;-73
2023/06/07 01:50:30;;;;;;;13.50;4.53;;;10.70;99.90;;;;;;5060520;28;20123;-73
2023/06/07 01:52:56;;;;;;;18.17;4.95;;;10.70;99.90;;;;;;5060458;28;20086;-73
2023/06/07 01:55:24;;;;;;;14.05;4.28;;;10.70;99.90;;;;;;5040119;28;20478;-73
2023/06/07 01:58:00;;;;;;;17.92;5.05;;;10.70;99.90;;;;;;5040325;28;20498;-73
2023/06/07 02:00:35;;;;;;;15.65;4.57;;;10.70;99.90;;;;;;5065378;28;20036;-73
2023/06/07 02:03:16;;;;;;;14.63;4.28;;;10.70;99.90;;;;;;5061435;28;20130;-73
2023/06/07 02:05:48;;;;;;;15.40;4.55;;;10.80;99.90;;;;;;5061036;28;20044;-73
2023/06/07 02:08:36;;;;;;;15.40;4.63;;;10.80;99.90;;;;;;5043061;28;20033;-73
2023/06/07 02:11:03;;;;;;;14.77;4.57;;;10.80;99.90;;;;;;5060785;28;20055;-73
2023/06/07 02:13:34;;;;;;;16.10;4.70;;;10.80;99.90;;;;;;5058707;28;20055;-73
2023/06/07 02:16:04;;;;;;;15.57;4.22;;;10.70;99.90;;;;;;5060683;28;20040;-73
2023/06/07 02:18:31;;;;;;;12.55;3.92;;;10.70;99.90;;;;;;5058185;28;20055;-73
2023/06/07 02:20:56;;;;;;;12.80;4.43;;;10.70;99.90;;;;;;5063277;28;20040;-73
2023/06/07 02:23:23;;;;;;;16.98;4.95;;;10.70;99.90;;;;;;5039667;28;20045;-73
2023/06/07 02:25:49;;;;;;;16.80;4.50;;;10.70;99.90;;;;;;5061856;28;20124;-73
2023/06/07 02:28:15;;;;;;;12.57;4.45;;;10.70;99.90;;;;;;5054110;28;20037;-73
2023/06/07 02:30:40;;;;;;;15.60;4.50;;;10.70;99.90;;;;;;5063777;28;20045;-73
2023/06/07 02:33:13;;;;;;;16.13;4.50;;;10.80;99.90;;;;;;5062128;28;20119;-73
2023/06/07 02:35:48;;;;;;;20.52;4.88;;;10.80;99.90;;;;;;5060729;28;20239;-73
2023/06/07 02:38:14;;;;;;;15.23;4.45;;;10.70;99.90;;;;;;5058678;28;20044;-73
2023/06/07 02:40:40;;;;;;;13.73;4.25;;;10.70;99.90;;;;;;5057496;28;20050;-73
2023/06/07 02:43:05;;;;;;;18.48;5.00;;;10.70;99.90;;;;;;5051431;28;20057;-73
2023/06/07 02:45:31;;;;;;;20.63;5.00;;;10.70;99.90;;;;;;5069982;28;20044;-73
2023/06/07 02:47:57;;;;;;;16.17;5.03;;;10.80;99.90;;;;;;5059145;28;20076;-73
2023/06/07 02:50:23;;;;;;;13.93;4.20;;;10.80;99.90;;;;;;5061516;28;20041;-73
2023/06/07 02:52:49;;;;;;;16.83;4.75;;;10.80;99.90;;;;;;5064384;28;20045;-73
2023/06/07 02:55:14;;;;;;;13.27;4.45;;;10.80;99.90;;;;;;5064203;28;20041;-73
2023/06/07 02:57:43;;;;;;;13.13;4.28;;;10.90;99.90;;;;;;5067057;28;20036;-73
2023/06/07 03:00:13;;;;;;;14.68;4.70;;;10.90;99.90;;;;;;5057476;28;20052;-73
2023/06/07 03:02:39;;;;;;;17.20;4.50;;;10.90;99.90;;;;;;5063462;28;20566;-73
2023/06/07 03:05:06;;;;;;;16.75;4.57;;;10.90;99.90;;;;;;5064053;28;20375;-73
2023/06/07 03:07:35;;;;;;;17.67;4.97;;;11.00;99.90;;;;;;5065784;28;20228;-73
2023/06/07 03:10:02;;;;;;;17.33;4.85;;;11.00;99.90;;;;;;5060001;28;20032;-73
2023/06/07 03:12:28;;;;;;;14.93;4.28;;;11.00;99.90;;;;;;5060603;28;20131;-73
2023/06/07 03:14:54;;;;;;;16.08;5.00;;;11.10;99.90;;;;;;5039015;28;20196;-73
2023/06/07 03:17:20;;;;;;;16.17;4.75;;;11.10;99.90;;;;;;5063674;28;20072;-73
2023/06/07 03:19:46;;;;;;;14.98;4.60;;;11.10;99.90;;;;;;5066154;28;20497;-73
2023/06/07 03:22:11;;;;;;;16.75;5.45;;;11.20;99.90;;;;;;5062019;28;20045;-73
2023/06/07 03:24:37;;;;;;;15.40;4.32;;;11.20;99.90;;;;;;5064262;28;20449;-73
2023/06/07 03:27:04;;;;;;;15.70;4.43;;;11.20;99.90;;;;;;5067119;28;20043;-73
2023/06/07 03:29:30;;;;;;;17.13;4.95;;;11.20;99.90;;;;;;5059192;28;20090;-73
2023/06/07 03:31:56;;;;;;;14.48;4.50;;;11.30;99.90;;;;;;5061184;28;20048;-73
2023/06/07 03:34:22;;;;;;;18.10;4.63;;;11.30;99.90;;;;;;5059241;28;20036;-73
2023/06/07 03:36:48;;;;;;;15.07;4.40;;;11.30;99.90;;;;;;5065395;28;20071;-73
2023/06/07 03:39:14;;;;;;;14.02;4.10;;;11.40;99.90;;;;;;5063838;28;20494;-73
2023/06/07 03:41:40;;;;;;;16.02;4.38;;;11.40;99.90;;;;;;5063943;28;20846;-73
2023/06/07 03:44:06;;;;;;;14.60;4.72;;;11.40;99.90;;;;;;5046787;28;20124;-73
2023/06/07 03:46:31;;;;;;;15.05;4.82;;;11.40;99.90;;;;;;5048305;28;20503;-73
2023/06/07 03:48:57;;;;;;;16.00;4.85;;;11.50;99.90;;;;;;5061624;28;20421;-73
2023/06/07 03:51:23;;;;;;;15.48;4.78;;;11.50;99.90;;;;;;5060792;28;20099;-73
2023/06/07 03:53:48;;;;;;;16.30;4.70;;;11.50;99.90;;;;;;5058403;28;20165;-73
2023/06/07 03:56:15;;;;;;;17.13;4.63;;;11.50;99.90;;;;;;5062686;28;20032;-73
2023/06/07 03:58:40;;;;;;;16.20;4.60;;;11.60;99.90;;;;;;5063452;28;20067;-73
2023/06/07 04:01:06;;;;;;;17.20;4.55;;;11.60;99.90;;;;;;5059978;28;20076;-73
2023/06/07 04:03:32;;;;;;;16.17;4.70;;;11.60;99.90;;;;;;5058849;28;20109;-73
2023/06/07 04:05:58;;;;;;;20.55;5.45;;;11.60;99.90;;;;;;5064712;28;20042;-73
2023/06/07 04:08:24;;;;;;;13.88;4.53;;;11.70;99.90;;;;;;5063184;28;20250;-73
2023/06/07 04:10:51;;;;;;;15.00;4.40;;;11.70;99.90;;;;;;5061823;28;20109;-74
2023/06/07 04:13:16;;;;;;;15.35;4.65;;;11.70;99.90;;;;;;5058201;28;20036;-73
2023/06/07 04:15:45;;;;;;;13.38;4.30;;;11.70;99.90;;;;;;5059779;28;20495;-73
2023/06/07 04:18:11;;;;;;;16.25;4.18;;;11.80;99.90;;;;;;5062143;28;20402;-73
2023/06/07 04:20:40;;;;;;;17.50;4.85;;;11.80;99.90;;;;;;5062498;28;20048;-73
2023/06/07 04:23:05;;;;;;;15.32;4.07;;;11.80;99.90;;;;;;5061518;28;20106;-73
2023/06/07 04:25:32;;;;;;;14.80;4.22;;;11.80;99.90;;;;;;5063117;28;20135;-73
2023/06/07 04:28:01;;;;;;;14.48;4.20;;;11.90;99.90;;;;;;5061117;28;20040;-73
2023/06/07 04:30:36;;;;;;;13.88;4.00;;;11.90;99.90;;;;;;5060842;28;20043;-73
2023/06/07 04:33:10;;;;;;;16.98;4.65;;;11.90;99.90;;;;;;5065605;28;20041;-73
2023/06/07 04:35:41;;;;;;;14.38;3.78;;;11.90;99.90;;;;;;5062028;28;20045;-73
2023/06/07 04:38:25;;;;;;;17.40;4.32;;;12.00;99.90;;;;;;5044208;28;20070;-73
2023/06/07 04:40:52;;;;;;;15.35;4.22;;;12.00;99.90;;;;;;5058310;28;20556;-73
2023/06/07 04:43:18;;;;;;;16.38;4.30;;;12.00;99.90;;;;;;5062970;28;20090;-73
2023/06/07 04:45:54;;;;;;;15.32;3.85;;;12.10;99.90;;;;;;5059966;28;20079;-73
2023/06/07 04:48:25;;;;;;;16.17;3.97;;;12.10;99.90;;;;;;5063094;28;20115;-73
2023/06/07 04:50:52;;;;;;;13.27;3.88;;;12.10;99.90;;;;;;5059355;28;20101;-73
2023/06/07 04:53:19;;;;;;;12.98;3.83;;;12.10;99.90;;;;;;5059934;28;20036;-73
2023/06/07 04:55:49;;;;;;;16.05;4.28;;;12.20;99.90;;;;;;5042293;28;20094;-73
2023/06/07 04:58:18;;;;;;;16.15;4.38;;;12.20;99.90;;;;;;5062500;28;20044;-73
2023/06/07 05:00:45;;;;;;;12.20;3.67;;;12.30;99.90;;;;;;5060167;28;20052;-73
2023/06/07 05:03:21;;;;;;;14.25;3.60;;;12.30;99.90;;;;;;5056133;28;20045;-73
2023/06/07 05:05:48;;;;;;;14.48;4.28;;;12.30;99.90;;;;;;5059589;28;20052;-73
2023/06/07 05:08:14;;;;;;;12.68;3.75;;;12.40;99.90;;;;;;5061820;28;20119;-73
2023/06/07 05:10:40;;;;;;;14.85;4.00;;;12.40;99.90;;;;;;5060559;28;20056;-73
2023/06/07 05:13:06;;;;;;;17.80;4.03;;;12.40;99.90;;;;;;5061010;28;20195;-74
2023/06/07 05:15:32;;;;;;;15.30;3.83;;;12.40;99.90;;;;;;5063254;28;20111;-73
2023/06/07 05:18:02;;;;;;;13.80;3.95;;;12.50;99.90;;;;;;5062864;28;20532;-74
2023/06/07 05:20:28;;;;;;;14.07;4.32;;;12.50;99.90;;;;;;5062630;28;20041;-74
2023/06/07 05:22:54;;;;;;;15.85;4.03;;;12.40;99.90;;;;;;5060366;28;20032;-73
2023/06/07 05:25:20;;;;;;;11.77;3.90;;;12.40;99.90;;;;;;5059587;28;20185;-73
2023/06/07 05:27:49;;;;;;;14.40;3.47;;;12.40;99.90;;;;;;5056486;28;20048;-74
2023/06/07 05:30:16;;;;;;;15.05;4.22;;;12.40;99.90;;;;;;5055600;28;20095;-73
2023/06/07 05:32:42;;;;;;;12.10;3.80;;;12.50;99.90;;;;;;5056305;28;20136;-73
2023/06/07 05:35:08;;;;;;;18.02;4.60;;;12.50;99.90;;;;;;5060601;28;20051;-73
2023/06/07 05:37:34;;;;;;;11.30;3.38;;;12.60;99.90;;;;;;5061437;28;20177;-73
2023/06/07 05:40:00;;;;;;;12.05;3.50;;;12.60;99.90;;;;;;5062594;28;20078;-73
2023/06/07 05:42:26;;;;;;;18.48;4.13;;;12.60;99.90;;;;;;5062035;28;21590;-73
2023/06/07 05:44:55;;;;;;;17.75;4.00;;;12.60;99.90;;;;;;5062343;28;20418;-73
2023/06/07 05:47:20;;;;;;;16.02;3.95;;;12.60;99.90;;;;;;5060904;28;20044;-73
2023/06/07 05:49:47;;;;;;;12.23;3.97;;;12.60;99.90;;;;;;5046745;28;20041;-73
2023/06/07 05:52:13;;;;;;;16.23;3.85;;;12.70;99.90;;;;;;5062171;28;20052;-73
2023/06/07 05:54:47;;;;;;;14.82;3.90;;;12.70;99.90;;;;;;5062350;28;20486;-73
2023/06/07 05:57:13;;;;;;;15.52;4.10;;;12.80;99.90;;;;;;5058900;28;20077;-73
2023/06/07 05:59:39;;;;;;;16.13;4.45;;;12.80;99.90;;;;;;5062262;28;20040;-73
2023/06/07 06:02:06;;;;;;;16.77;4.30;;;12.90;99.90;;;;;;5063491;28;20348;-73
2023/06/07 06:04:31;;;;;;;14.18;3.97;;;13.00;99.90;;;;;;5064643;28;20477;-73
2023/06/07 06:06:57;;;;;;;17.30;4.13;;;13.00;99.90;;;;;;5059700;28;20071;-73
2023/06/07 06:09:23;;;;;;;14.60;3.50;;;13.00;99.90;;;;;;5060281;28;20032;-73
2023/06/07 06:11:50;;;;;;;14.30;3.95;;;13.10;99.90;;;;;;5043971;28;20450;-73
2023/06/07 06:14:15;;;;;;;12.70;3.75;;;13.10;99.90;;;;;;5062236;28;20044;-73
2023/06/07 06:16:41;;;;;;;14.68;3.90;;;13.20;99.90;;;;;;5058826;28;20036;-73
2023/06/07 06:19:07;;;;;;;16.45;4.13;;;13.20;99.90;;;;;;5061482;28;20036;-73
2023/06/07 06:21:33;;;;;;;15.88;4.50;;;13.30;99.90;;;;;;5064330;28;20032;-73
2023/06/07 06:24:00;;;;;;;12.27;3.50;;;13.30;99.90;;;;;;5059143;28;20529;-73
2023/06/07 06:26:27;;;;;;;14.98;4.40;;;13.40;99.90;;;;;;5059541;28;20535;-73
2023/06/07 06:28:53;;;;;;;15.57;3.40;;;13.40;99.90;;;;;;5035647;28;20043;-73
2023/06/07 06:31:18;;;;;;;14.63;3.90;;;13.50;99.90;;;;;;5060799;28;20040;-73
2023/06/07 06:33:44;;;;;;;12.13;3.85;;;13.50;99.90;;;;;;5063466;28;20114;-73
2023/06/07 06:36:11;;;;;;;10.60;3.45;;;13.50;99.90;;;;;;5059154;28;20471;-73
2023/06/07 06:38:36;;;;;;;12.57;3.97;;;13.60;99.90;;;;;;5062105;28;20041;-73
2023/06/07 06:41:02;;;;;;;13.35;3.83;;;13.50;99.90;;;;;;5060345;28;20563;-73
2023/06/07 06:43:28;;;;;;;10.95;3.72;;;13.60;99.90;;;;;;5061446;28;20176;-73
2023/06/07 06:45:54;;;;;;;11.02;3.45;;;13.50;99.90;;;;;;5055367;28;20044;-73
2023/06/07 06:48:20;;;;;;;13.73;3.42;;;13.50;99.90;;;;;;5056890;28;20040;-73
2023/06/07 06:50:47;;;;;;;11.13;3.50;;;13.40;99.90;;;;;;5059797;28;20037;-73
2023/06/07 06:53:13;;;;;;;14.25;4.07;;;13.50;99.90;;;;;;5062613;28;20509;-73
2023/06/07 06:55:39;;;;;;;13.85;3.72;;;13.50;99.90;;;;;;5060719;28;20041;-74
2023/06/07 06:58:05;;;;;;;12.10;3.63;;;13.60;99.90;;;;;;5062651;28;20041;-73
2023/06/07 07:00:35;;;;;;;10.63;3.10;;;13.60;99.90;;;;;;5062665;28;20043;-73
2023/06/07 07:03:03;;;;;;;14.27;3.88;;;13.60;99.90;;;;;;5060187;28;20654;-73
2023/06/07 07:05:29;;;;;;;14.63;3.85;;;13.70;99.90;;;;;;5041964;28;20559;-73
2023/06/07 07:07:56;;;;;;;13.60;3.50;;;13.70;99.90;;;;;;5043487;28;20064;-73
2023/06/07 07:10:22;;;;;;;14.18;3.72;;;13.80;99.90;;;;;;5058856;28;20475;-73
2023/06/07 07:12:47;;;;;;;14.00;3.50;;;13.80;99.90;;;;;;5060700;28;20051;-73
2023/06/07 07:15:13;;;;;;;10.82;3.78;;;13.90;99.90;;;;;;5060977;28;20047;-73
2023/06/07 07:17:46;;;;;;;12.55;3.67;;;13.90;99.90;;;;;;5065169;28;20040;-73
2023/06/07 07:20:12;;;;;;;10.52;3.40;;;14.00;99.90;;;;;;5063491;28;20033;-73
2023/06/07 07:22:38;;;;;;;14.32;3.90;;;14.10;99.90;;;;;;5065610;28;20575;-73
2023/06/07 07:25:05;;;;;;;11.95;3.40;;;14.30;99.90;;;;;;5064661;28;20047;-73
2023/06/07 07:27:31;;;;;;;12.50;3.40;;;14.60;99.90;;;;;;5063758;28;20044;-73
2023/06/07 07:29:57;;;;;;;12.20;3.63;;;14.80;99.90;;;;;;5060635;28;20033;-73
2023/06/07 07:32:23;;;;;;;14.23;3.50;;;15.00;99.90;;;;;;5065886;28;20070;-73
2023/06/07 07:34:49;;;;;;;10.88;3.30;;;15.30;99.90;;;;;;5063301;28;20297;-73
2023/06/07 07:37:14;;;;;;;13.50;3.53;;;15.40;99.90;;;;;;5063416;28;20174;-73
2023/06/07 07:39:40;;;;;;;14.57;3.50;;;15.60;99.90;;;;;;5064014;28;20048;-74
2023/06/07 07:42:07;;;;;;;16.70;3.92;;;15.80;99.90;;;;;;5064470;28;20040;-74
2023/06/07 07:44:33;;;;;;;11.20;3.42;;;15.90;99.90;;;;;;5062998;28;20102;-74
2023/06/07 07:46:59;;;;;;;11.75;3.38;;;15.90;99.90;;;;;;5062738;28;20048;-74
2023/06/07 07:49:25;;;;;;;12.13;3.47;;;15.80;99.90;;;;;;5060244;28;20044;-73
2023/06/07 07:51:51;;;;;;;14.60;3.70;;;15.80;99.90;;;;;;5062816;28;20032;-74
2023/06/07 07:54:17;;;;;;;11.38;3.13;;;15.90;99.90;;;;;;5062438;28;20064;-73
2023/06/07 07:56:43;;;;;;;11.35;3.80;;;16.00;99.90;;;;;;5062101;28;20204;-74
2023/06/07 07:59:10;;;;;;;15.07;4.40;;;16.10;99.90;;;;;;5065149;28;20534;-74
2023/06/07 08:01:36;;;;;;;15.43;3.88;;;16.30;99.90;;;;;;5062268;28;20120;-74
2023/06/07 08:04:02;;;;;;;15.60;3.67;;;16.40;99.90;;;;;;5059245;28;20124;-74
2023/06/07 08:06:27;;;;;;;12.88;3.90;;;16.50;99.90;;;;;;5061805;28;20040;-74
2023/06/07 08:08:53;;;;;;;10.52;3.85;;;16.30;99.90;;;;;;5041988;28;20112;-74
2023/06/07 08:11:21;;;;;;;14.80;3.47;;;16.30;99.90;;;;;;5043660;28;20068;-74
2023/06/07 08:13:47;;;;;;;11.18;3.90;;;16.20;99.90;;;;;;5059149;28;20033;-73
2023/06/07 08:16:12;;;;;;;15.38;4.13;;;16.10;99.90;;;;;;5065782;28;20537;-74
2023/06/07 08:18:38;;;;;;;13.88;3.78;;;16.00;99.90;;;;;;5063647;28;20070;-74
2023/06/07 08:21:05;;;;;;;15.43;3.97;;;16.10;99.90;;;;;;5063177;28;20040;-74
2023/06/07 08:23:30;;;;;;;14.77;3.97;;;16.20;99.90;;;;;;5066447;28;20036;-74
2023/06/07 08:25:58;;;;;;;14.25;4.00;;;16.40;99.90;;;;;;5057828;28;20486;-74
2023/06/07 08:28:25;;;;;;;13.60;3.90;;;16.50;99.90;;;;;;5061485;28;20050;-74
2023/06/07 08:30:50;;;;;;;12.88;3.70;;;16.50;99.90;;;;;;5061387;28;20439;-74
2023/06/07 08:33:16;;;;;;;12.38;3.65;;;16.50;99.90;;;;;;5061294;28;20052;-74
2023/06/07 08:35:42;;;;;;;13.48;3.83;;;16.60;99.90;;;;;;5064546;28;20094;-74
2023/06/07 08:38:08;;;;;;;14.20;3.30;;;16.70;99.90;;;;;;5059603;28;20549;-74
2023/06/07 08:40:38;;;;;;;10.85;3.50;;;16.80;99.90;;;;;;5065074;28;20134;-73
2023/06/07 08:43:04;;;;;;;13.05;3.85;;;16.90;99.90;;;;;;5063353;28;21008;-74
2023/06/07 08:45:30;;;;;;;11.48;3.50;;;17.00;99.90;;;;;;5063242;28;20121;-74
2023/06/07 08:47:58;;;;;;;12.43;3.70;;;17.10;99.90;;;;;;5059503;28;20044;-74
2023/06/07 08:50:25;;;;;;;16.90;3.90;;;17.10;99.90;;;;;;5045229;28;20043;-74
2023/06/07 08:52:54;;;;;;;12.70;3.53;;;17.10;99.90;;;;;;5062292;28;20102;-74
2023/06/07 08:55:21;;;;;;;12.73;3.58;;;17.20;99.90;;;;;;5058273;28;20040;-73
2023/06/07 08:57:52;;;;;;;12.60;4.00;;;17.20;99.90;;;;;;5058941;28;20047;-73
2023/06/07 09:00:25;;;;;;;12.77;3.78;;;17.20;99.90;;;;;;5056274;28;20426;-73
2023/06/07 09:02:52;;;;;;;14.95;3.78;;;17.10;99.90;;;;;;5060292;28;20036;-74
2023/06/07 09:05:22;;;;;;;15.82;3.42;;;17.10;99.90;;;;;;5056855;28;20069;-73
2023/06/07 09:07:49;;;;;;;10.55;3.42;;;17.20;99.90;;;;;;5077116;28;20056;-73
2023/06/07 09:10:17;;;;;;;12.32;3.20;;;17.30;99.90;;;;;;5063066;28;20044;-73
2023/06/07 09:12:45;;;;;;;14.00;3.50;;;17.30;99.90;;;;;;5056284;28;20615;-73
2023/06/07 09:15:18;;;;;;;13.10;3.60;;;17.30;99.90;;;;;;5060449;28;20036;-73
2023/06/07 09:17:54;;;;;;;11.38;3.75;;;17.30;99.90;;;;;;5062012;28;20125;-73
2023/06/07 09:20:24;;;;;;;9.48;3.40;;;17.30;99.90;;;;;;5061876;28;20040;-73
2023/06/07 09:22:58;;;;;;;17.58;4.07;;;17.40;99.90;;;;;;5045766;28;20199;-73
2023/06/07 09:25:25;;;;;;;13.90;3.60;;;17.40;99.90;;;;;;5057753;28;20123;-73
2023/06/07 09:27:51;;;;;;;11.48;3.70;;;17.60;99.90;;;;;;5062302;28;20077;-73
2023/06/07 09:30:18;;;;;;;11.93;3.50;;;17.70;99.90;;;;;;5057151;28;20033;-73
2023/06/07 09:32:43;;;;;;;10.68;3.67;;;17.80;99.90;;;;;;5059834;28;20049;-73
2023/06/07 09:35:20;;;;;;;12.43;3.88;;;17.80;99.90;;;;;;5059131;28;20098;-73
2023/06/07 09:37:54;;;;;;;15.73;4.53;;;17.80;99.90;;;;;;5060332;28;20084;-73
2023/06/07 09:40:22;;;;;;;13.82;4.30;;;17.80;99.90;;;;;;5059410;28;20048;-73
2023/06/07 09:42:58;;;;;;;14.60;4.20;;;17.80;99.90;;;;;;5061678;28;20086;-73
2023/06/07 09:45:25;;;;;;;13.50;4.30;;;17.70;99.90;;;;;;5057179;28;20043;-73
2023/06/07 09:48:02;;;;;;;15.75;4.38;;;17.90;99.90;;;;;;5057456;28;20045;-73
2023/06/07 09:50:28;;;;;;;15.45;3.80;;;17.90;99.90;;;;;;5060890;28;20150;-73
2023/06/07 09:52:58;;;;;;;12.10;3.88;;;17.80;99.90;;;;;;5063116;28;20083;-73
2023/06/07 09:55:28;;;;;;;13.95;4.40;;;17.90;99.90;;;;;;5060363;28;20043;-73
2023/06/07 09:57:55;;;;;;;13.75;3.97;;;17.90;99.90;;;;;;5049488;28;20453;-73
2023/06/07 10:00:21;;;;;;;12.27;3.78;;;17.90;99.90;;;;;;5043169;28;20037;-73
2023/06/07 10:02:49;;;;;;;15.70;4.18;;;18.10;99.90;;;;;;5059241;28;20467;-74
2023/06/07 10:05:16;;;;;;;14.27;4.25;;;18.10;99.90;;;;;;5059034;28;20047;-74
2023/06/07 10:07:47;;;;;;;12.95;4.10;;;18.10;99.90;;;;;;5061351;28;20486;-74
2023/06/07 10:10:15;;;;;;;14.48;4.45;;;18.20;99.90;;;;;;5057690;28;20053;-73
2023/06/07 10:12:46;;;;;;;11.55;4.32;;;18.20;99.90;;;;;;5061492;28;20036;-73
2023/06/07 10:15:15;;;;;;;13.50;4.57;;;18.20;99.90;;;;;;5057257;28;20039;-73
2023/06/07 10:17:51;;;;;;;12.93;4.22;;;18.30;99.90;;;;;;5061801;28;20037;-73
2023/06/07 10:20:30;;;;;;;14.93;4.57;;;18.30;99.90;;;;;;5057569;28;20040;-74
2023/06/07 10:23:03;;;;;;;12.70;4.40;;;18.40;99.90;;;;;;5059910;28;20052;-73
2023/06/07 10:25:32;;;;;;;16.85;4.38;;;18.50;99.90;;;;;;5057201;28;20033;-73
2023/06/07 10:28:29;;;;;;;13.27;3.90;;;18.40;99.90;;;;;;5063239;28;20086;-73
2023/06/07 10:31:05;;;;;;;13.68;4.65;;;18.50;99.90;;;;;;5061557;28;20040;-73
2023/06/07 10:33:35;;;;;;;14.75;4.55;;;18.60;99.90;;;;;;5058773;28;20044;-74
2023/06/07 10:36:01;;;;;;;14.48;4.65;;;18.70;99.90;;;;;;5056965;28;20037;-73
2023/06/07 10:38:32;;;;;;;15.00;4.28;;;18.70;99.90;;;;;;5061711;28;20045;-74
2023/06/07 10:41:01;;;;;;;11.35;4.65;;;18.60;99.90;;;;;;5058906;28;20394;-74
2023/06/07 10:43:30;;;;;;;13.85;4.45;;;18.60;99.90;;;;;;5056345;28;20521;-74
2023/06/07 10:46:19;;;;;;;13.35;4.32;;;18.60;99.90;;;;;;5062041;28;20064;-74
2023/06/07 10:48:46;;;;;;;14.88;4.47;;;18.70;99.90;;;;;;5061182;28;20056;-74
2023/06/07 10:51:13;;;;;;;15.07;4.60;;;18.80;99.90;;;;;;5062500;28;20037;-74
2023/06/07 10:54:11;;;;;;;15.55;5.05;;;18.90;99.90;;;;;;5062537;28;20045;-74
2023/06/07 10:56:38;;;;;;;14.80;4.60;;;18.90;99.90;;;;;;5060321;28;20191;-74
2023/06/07 10:59:25;;;;;;;14.38;4.53;;;18.80;99.90;;;;;;5057104;28;20382;-74
2023/06/07 11:01:52;;;;;;;14.32;4.20;;;18.90;99.90;;;;;;5061639;28;20099;-73
2023/06/07 11:04:37;;;;;;;14.70;4.20;;;18.90;99.90;;;;;;5062576;28;20036;-73
2023/06/07 11:07:28;;;;;;;12.48;4.32;;;18.90;99.90;;;;;;5056497;28;20051;-73
2023/06/07 11:10:07;;;;;;;12.10;3.70;;;19.00;99.90;;;;;;5060089;28;20052;-73
2023/06/07 11:12:35;;;;;;;12.07;4.35;;;18.90;99.90;;;;;;5062112;28;20072;-74
2023/06/07 11:15:21;;;;;;;11.13;3.63;;;18.90;99.90;;;;;;5061030;28;20048;-73
2023/06/07 11:17:55;;;;;;;15.32;4.15;;;19.00;99.90;;;;;;5054687;28;20053;-73
2023/06/07 11:20:36;;;;;;;11.70;3.83;;;19.10;99.90;;;;;;5062120;28;20036;-74
2023/06/07 11:23:28;;;;;;;14.32;3.95;;;19.00;99.90;;;;;;5059753;28;20036;-73
2023/06/07 11:25:53;;;;;;;13.27;4.07;;;19.10;99.90;;;;;;5061934;28;20082;-73
2023/06/07 11:28:24;;;;;;;14.20;4.10;;;19.10;99.90;;;;;;5064060;28;20083;-74
2023/06/07 11:30:51;;;;;;;12.00;3.65;;;19.20;99.90;;;;;;5057001;28;20060;-73
2023/06/07 11:33:19;;;;;;;12.70;4.10;;;19.20;99.90;;;;;;5065021;28;20047;-73
2023/06/07 11:35:45;;;;;;;12.52;3.85;;;19.20;99.90;;;;;;5065335;28;20044;-73
2023/06/07 11:38:11;;;;;;;12.70;4.00;;;19.30;99.90;;;;;;5060029;28;20045;-73
2023/06/07 11:40:37;;;;;;;13.48;4.03;;;19.40;99.90;;;;;;5061344;28;20793;-73
2023/06/07 11:43:03;;;;;;;11.75;3.78;;;19.40;99.90;;;;;;5056960;28;20505;-73
2023/06/07 11:45:32;;;;;;;11.10;3.72;;;19.40;99.90;;;;;;5061693;28;20047;-74
2023/06/07 11:48:01;;;;;;;17.55;4.30;;;19.50;99.90;;;;;;5064619;28;20441;-73
2023/06/07 11:50:27;;;;;;;12.35;3.85;;;19.50;99.90;;;;;;5063234;28;20032;-74
2023/06/07 11:52:53;;;;;;;13.98;4.28;;;19.50;99.90;;;;;;5065965;28;20115;-74
2023/06/07 11:55:19;;;;;;;14.07;4.57;;;19.50;99.90;;;;;;5059627;28;20189;-73
2023/06/07 11:57:48;;;;;;;13.95;4.13;;;19.50;99.90;;;;;;5059075;28;20054;-74
2023/06/07 12:00:19;;;;;;;14.90;4.43;;;19.50;99.90;;;;;;5063584;28;20522;-73
2023/06/07 12:02:45;;;;;;;11.02;4.10;;;19.50;99.90;;;;;;5059607;28;20407;-74
2023/06/07 12:05:11;;;;;;;13.45;3.80;;;19.60;99.90;;;;;;5068208;28;20123;-74
2023/06/07 12:07:42;;;;;;;13.50;4.10;;;19.50;99.90;;;;;;5029105;28;20109;-73
2023/06/07 12:10:08;;;;;;;12.93;3.80;;;19.60;99.90;;;;;;5062441;28;20048;-73
2023/06/07 12:12:39;;;;;;;14.60;3.83;;;19.60;99.90;;;;;;5039932;28;20132;-74
2023/06/07 12:15:05;;;;;;;14.65;4.18;;;19.70;99.90;;;;;;5066046;28;20052;-73
2023/06/07 12:17:35;;;;;;;11.13;3.53;;;19.70;99.90;;;;;;5064589;28;20045;-73
2023/06/07 12:20:12;;;;;;;11.48;3.85;;;19.70;99.90;;;;;;5060597;28;20071;-73
2023/06/07 12:22:39;;;;;;;11.55;3.80;;;19.80;99.90;;;;;;5061301;28;20072;-73
2023/06/07 12:25:15;;;;;;;13.15;3.63;;;19.80;99.90;;;;;;5062833;28;20098;-74
2023/06/07 12:27:47;;;;;;;10.45;3.58;;;19.80;99.90;;;;;;5058443;28;20040;-73
2023/06/07 12:30:13;;;;;;;13.13;3.85;;;19.70;99.90;;;;;;5055133;28;20042;-74
2023/06/07 12:32:39;;;;;;;14.75;3.97;;;19.70;99.90;;;;;;5062603;28;20041;-74
2023/06/07 12:35:05;;;;;;;13.02;3.90;;;19.70;99.90;;;;;;5057111;28;20475;-74
2023/06/07 12:37:37;;;;;;;11.63;3.33;;;19.60;99.90;;;;;;5060129;28;20172;-74
2023/06/07 12:40:05;;;;;;;12.13;3.47;;;19.70;99.90;;;;;;5056047;28;20138;-73